Terminal Aerodrome Forecast
Issued by NWS Wilmington, NC

Home | Current Version | Previous Version | Text Only | Print | Product List | Glossary On
Versions: 1 2 3 4 5 6 7 8 9 10 11 12 13 14 15 16 17 18
000
FTUS42 KILM 231134
TAFMYR
TAF
KMYR 231134Z 2312/2412 VRB05KT P6SM SKC
     FM231400 09009KT P6SM FEW200
     FM231800 11011G19KT P6SM FEW040 FEW150
     FM240000 11010KT P6SM SCT150=

USA.gov is the U.S. government's official web portal to all federal, state and local government web resources and services.